createdAt,value
2023-04-21T00:01:58.838Z,5.20
2023-04-21T00:05:03.152Z,5.15
2023-04-21T00:08:06.572Z,5.65
2023-04-21T00:11:09.723Z,4.95
2023-04-21T00:14:12.717Z,6.03
2023-04-21T00:17:15.485Z,5.57
2023-04-21T00:20:19.968Z,5.50
2023-04-21T00:23:22.992Z,5.85
2023-04-21T00:26:25.834Z,5.03
2023-04-21T00:29:28.672Z,5.65
2023-04-21T00:32:31.461Z,5.50
2023-04-21T00:35:35.873Z,5.70
2023-04-21T00:38:38.781Z,6.00
2023-04-21T00:41:42.422Z,5.95
2023-04-21T00:44:45.743Z,6.00
2023-04-21T00:47:48.481Z,6.10
2023-04-21T00:50:52.777Z,5.70
2023-04-21T00:53:56.843Z,7.25
2023-04-21T00:57:01.611Z,5.90
2023-04-21T01:00:08.934Z,6.45
2023-04-21T01:03:11.872Z,6.80
2023-04-21T01:06:16.208Z,6.30
2023-04-21T01:09:19.409Z,5.93
2023-04-21T01:12:22.421Z,6.35
2023-04-21T01:15:27.457Z,7.05
2023-04-21T01:18:30.259Z,6.40
2023-04-21T01:21:40.599Z,6.55
2023-04-21T01:24:44.630Z,6.70
2023-04-21T01:27:47.594Z,6.72
2023-04-21T01:30:50.679Z,6.45
2023-04-21T01:33:53.406Z,6.57
2023-04-21T01:36:57.654Z,6.82
2023-04-21T01:40:05.009Z,6.82
2023-04-21T01:43:07.956Z,6.55
2023-04-21T01:46:10.939Z,7.55
2023-04-21T01:49:13.749Z,7.50
2023-04-21T01:52:17.920Z,7.20
2023-04-21T01:55:21.548Z,7.40
2023-04-21T01:58:24.308Z,7.88
2023-04-21T02:01:27.160Z,7.55
2023-04-21T02:04:30.161Z,6.93
2023-04-21T02:07:34.504Z,8.20
2023-04-21T02:10:37.474Z,8.02
2023-04-21T02:13:40.188Z,7.68
2023-04-21T02:16:43.288Z,7.90
2023-04-21T02:19:47.740Z,7.33
2023-04-21T02:22:52.087Z,7.47
2023-04-21T02:25:55.001Z,8.15
2023-04-21T02:28:57.772Z,8.05
2023-04-21T02:32:10.437Z,8.60
2023-04-21T02:35:20.932Z,7.40
2023-04-21T02:38:25.224Z,7.90
2023-04-21T02:41:28.067Z,7.95
2023-04-21T02:44:31.085Z,8.07
2023-04-21T02:47:34.075Z,8.38
2023-04-21T02:50:37.014Z,8.50
2023-04-21T02:53:41.450Z,8.05
2023-04-21T02:56:44.335Z,9.40
2023-04-21T02:59:47.073Z,8.10
2023-04-21T03:02:50.135Z,8.63
2023-04-21T03:05:57.972Z,8.10
2023-04-21T03:09:03.426Z,8.88
2023-04-21T03:12:06.389Z,9.20
2023-04-21T03:15:09.338Z,9.27
2023-04-21T03:18:12.421Z,8.88
2023-04-21T03:21:15.776Z,8.67
2023-04-21T03:24:21.537Z,8.90
2023-04-21T03:27:24.355Z,8.80
2023-04-21T03:30:27.299Z,8.77
2023-04-21T03:33:30.134Z,8.60
2023-04-21T03:36:32.866Z,8.87
2023-04-21T03:39:37.270Z,8.65
2023-04-21T03:42:40.020Z,9.48
2023-04-21T03:45:42.760Z,9.27
2023-04-21T03:48:45.641Z,9.68
2023-04-21T03:51:48.502Z,9.83
2023-04-21T03:54:52.772Z,8.55
2023-04-21T03:57:55.736Z,9.15
2023-04-21T04:00:58.453Z,9.02
2023-04-21T04:04:01.525Z,9.18
2023-04-21T04:07:04.910Z,9.97
2023-04-21T04:10:09.423Z,9.27
2023-04-21T04:13:12.949Z,10.38
2023-04-21T04:16:15.920Z,9.15
2023-04-21T04:19:19.082Z,9.25
2023-04-21T04:22:22.045Z,9.17
2023-04-21T04:25:27.154Z,9.32
2023-04-21T04:28:30.859Z,9.40
2023-04-21T04:31:34.681Z,9.25
2023-04-21T04:34:37.862Z,10.05
2023-04-21T04:37:41.139Z,9.50
2023-04-21T04:40:45.540Z,10.35
2023-04-21T04:43:48.549Z,10.07
2023-04-21T04:46:52.644Z,9.80
2023-04-21T04:49:55.776Z,10.13
2023-04-21T04:52:58.525Z,9.60
2023-04-21T04:56:02.828Z,9.25
2023-04-21T04:59:05.786Z,10.07
2023-04-21T05:02:08.983Z,9.52
2023-04-21T05:05:11.959Z,10.13
2023-04-21T05:08:17.134Z,9.67
2023-04-21T05:11:22.027Z,9.65
2023-04-21T05:14:24.897Z,9.65
2023-04-21T05:17:28.672Z,9.52
2023-04-21T05:20:31.836Z,9.93
2023-04-21T05:23:34.613Z,10.07
2023-04-21T05:26:38.840Z,10.02
2023-04-21T05:29:41.693Z,10.68
2023-04-21T05:32:44.449Z,10.63
2023-04-21T05:35:47.312Z,10.27
2023-04-21T05:38:50.054Z,9.00
2023-04-21T05:41:54.256Z,9.45
2023-04-21T05:44:57.150Z,10.30
2023-04-21T05:47:59.885Z,9.20
2023-04-21T05:51:09.754Z,10.15
2023-04-21T05:54:12.492Z,9.67
2023-04-21T05:57:17.985Z,10.35
2023-04-21T06:00:20.915Z,10.32
2023-04-21T06:03:23.977Z,10.45
2023-04-21T06:06:27.498Z,10.10
2023-04-21T06:09:30.233Z,9.57
2023-04-21T06:12:34.462Z,10.43
2023-04-21T06:15:37.422Z,9.80
2023-04-21T06:18:40.180Z,9.65
2023-04-21T06:21:43.016Z,9.80
2023-04-21T06:24:45.734Z,9.70
2023-04-21T06:27:49.970Z,11.50
2023-04-21T06:30:52.846Z,11.13
2023-04-21T06:33:55.566Z,10.95
2023-04-21T06:36:58.379Z,10.23
2023-04-21T06:40:01.276Z,10.03
2023-04-21T06:43:05.896Z,9.43
2023-04-21T06:46:08.774Z,9.95
2023-04-21T06:49:12.008Z,9.75
2023-04-21T06:52:14.972Z,10.35
2023-04-21T06:55:17.878Z,10.13
2023-04-21T06:58:22.116Z,10.63
2023-04-21T07:01:25.245Z,10.18
2023-04-21T07:04:30.288Z,9.40
2023-04-21T07:07:33.183Z,10.18
2023-04-21T07:10:35.914Z,9.77
2023-04-21T07:13:40.220Z,9.60
2023-04-21T07:16:43.122Z,10.57
2023-04-21T07:19:46.294Z,9.70
2023-04-21T07:22:49.216Z,9.38
2023-04-21T07:25:51.940Z,9.13
2023-04-21T07:28:58.656Z,9.63
2023-04-21T07:32:02.038Z,9.43
2023-04-21T07:35:05.486Z,9.30
2023-04-21T07:38:08.408Z,10.02
2023-04-21T07:41:11.888Z,9.47
2023-04-21T07:44:16.130Z,9.63
2023-04-21T07:47:18.939Z,9.82
2023-04-21T07:50:21.722Z,8.75
2023-04-21T07:53:24.656Z,9.98
2023-04-21T07:56:27.378Z,10.23
2023-04-21T07:59:31.743Z,8.88
2023-04-21T08:02:34.758Z,9.50
2023-04-21T08:05:40.977Z,8.88
2023-04-21T08:08:44.497Z,9.30
2023-04-21T08:11:47.241Z,9.17
2023-04-21T08:14:51.568Z,8.82
2023-04-21T08:17:55.095Z,9.13
2023-04-21T08:20:58.370Z,8.80
2023-04-21T08:24:01.589Z,9.50
2023-04-21T08:27:04.469Z,9.63
2023-04-21T08:30:10.283Z,8.57
2023-04-21T08:33:14.047Z,8.50
2023-04-21T08:36:26.390Z,8.63
2023-04-21T08:39:32.496Z,9.30
2023-04-21T08:42:36.870Z,8.57
2023-04-21T08:45:42.727Z,9.05
2023-04-21T08:48:47.946Z,9.10
2023-04-21T08:51:51.313Z,9.15
2023-04-21T08:54:55.636Z,9.07
2023-04-21T08:57:58.513Z,8.97
2023-04-21T09:01:02.647Z,8.90
2023-04-21T09:04:18.951Z,9.20
2023-04-21T09:07:33.498Z,7.90
2023-04-21T09:10:44.049Z,8.43
2023-04-21T09:13:46.960Z,8.47
2023-04-21T09:17:01.044Z,8.15
2023-04-21T09:20:18.028Z,8.70
2023-04-21T09:23:22.262Z,7.85
2023-04-21T09:26:25.241Z,9.00
2023-04-21T09:29:29.281Z,8.70
2023-04-21T09:32:37.515Z,8.48
2023-04-21T09:35:40.625Z,8.45
2023-04-21T09:38:43.798Z,8.80
2023-04-21T09:41:48.417Z,8.40
2023-04-21T09:44:56.452Z,8.10
2023-04-21T09:48:20.027Z,8.60
2023-04-21T09:51:46.126Z,8.10
2023-04-21T09:54:51.627Z,7.85
2023-04-21T09:58:00.006Z,8.20
2023-04-21T10:01:04.728Z,8.00
2023-04-21T10:04:09.909Z,7.78
2023-04-21T10:07:13.454Z,7.88
2023-04-21T10:10:22.366Z,7.93
2023-04-21T10:13:25.888Z,7.95
2023-04-21T10:16:28.720Z,8.50
2023-04-21T10:19:36.238Z,7.90
2023-04-21T10:22:39.873Z,8.00
2023-04-21T10:25:42.634Z,7.60
2023-04-21T10:28:55.752Z,7.63
2023-04-21T10:31:58.883Z,7.43
2023-04-21T10:35:04.148Z,7.30
2023-04-21T10:38:08.293Z,7.30
2023-04-21T10:41:27.069Z,7.22
2023-04-21T10:44:30.854Z,7.80
2023-04-21T10:47:38.069Z,7.27
2023-04-21T10:50:42.417Z,7.72
2023-04-21T10:53:45.925Z,8.13
2023-04-21T10:56:50.065Z,7.30
2023-04-21T10:59:52.928Z,7.05
2023-04-21T11:02:58.041Z,7.40
2023-04-21T11:06:15.636Z,7.30
2023-04-21T11:09:18.555Z,7.70
2023-04-21T11:12:21.297Z,7.40
2023-04-21T11:15:25.467Z,7.03
2023-04-21T11:18:38.920Z,7.23
2023-04-21T11:21:43.377Z,7.15
2023-04-21T11:24:46.930Z,7.15
2023-04-21T11:27:56.735Z,7.03
2023-04-21T11:31:00.283Z,7.43
2023-04-21T11:34:05.258Z,6.53
2023-04-21T11:37:10.071Z,7.15
2023-04-21T11:40:13.529Z,7.45
2023-04-21T11:43:16.651Z,7.22
2023-04-21T11:46:23.723Z,7.47
2023-04-21T11:49:29.351Z,7.03
2023-04-21T11:52:37.556Z,6.88
2023-04-21T11:55:43.786Z,7.00
2023-04-21T11:58:46.956Z,6.80
2023-04-21T12:01:51.193Z,6.75
2023-04-21T12:05:02.124Z,7.20
2023-04-21T12:08:07.623Z,7.38
2023-04-21T12:11:11.492Z,6.80
2023-04-21T12:14:16.193Z,7.18
2023-04-21T12:17:19.374Z,6.93
2023-04-21T12:20:23.802Z,6.93
2023-04-21T12:23:30.539Z,7.07
2023-04-21T12:26:33.392Z,6.93
2023-04-21T12:29:37.504Z,6.85
2023-04-21T12:32:40.455Z,6.85
2023-04-21T12:35:43.282Z,6.80
2023-04-21T12:38:47.537Z,7.30
2023-04-21T12:41:50.399Z,6.80
2023-04-21T12:44:53.189Z,6.93
2023-04-21T12:47:56.255Z,7.03
2023-04-21T12:50:59.045Z,6.57
2023-04-21T12:54:03.588Z,6.68
2023-04-21T12:57:07.946Z,7.18
2023-04-21T13:00:12.980Z,6.93
2023-04-21T13:03:16.098Z,6.75
2023-04-21T13:06:19.051Z,6.57
2023-04-21T13:09:23.327Z,7.13
2023-04-21T13:12:26.172Z,6.80
2023-04-21T13:15:28.849Z,6.15
2023-04-21T13:18:31.734Z,6.95
2023-04-21T13:21:34.504Z,6.00
2023-04-21T13:24:38.785Z,6.22
2023-04-21T13:27:42.097Z,6.07
2023-04-21T13:30:45.096Z,5.88
2023-04-21T13:33:48.015Z,5.93
2023-04-21T13:36:50.958Z,6.23
2023-04-21T13:39:55.217Z,6.20
2023-04-21T13:42:58.827Z,6.47
2023-04-21T13:46:01.752Z,6.47
2023-04-21T13:49:04.780Z,6.55
2023-04-21T13:52:07.476Z,6.40
2023-04-21T13:55:12.970Z,5.85
2023-04-21T13:58:16.907Z,6.40
2023-04-21T14:01:21.585Z,6.15
2023-04-21T14:04:25.203Z,6.45
2023-04-21T14:07:28.052Z,6.20
2023-04-21T14:10:32.399Z,5.95
2023-04-21T14:13:44.597Z,6.32
2023-04-21T14:16:50.759Z,6.20
2023-04-21T14:19:55.220Z,6.60
2023-04-21T14:22:58.184Z,5.80
2023-04-21T14:26:03.811Z,5.95
2023-04-21T14:29:06.723Z,6.10
2023-04-21T14:32:09.477Z,6.18
2023-04-21T14:35:12.708Z,6.53
2023-04-21T14:38:15.469Z,6.03
2023-04-21T14:41:19.697Z,6.37
2023-04-21T14:44:22.564Z,6.10
2023-04-21T14:47:26.002Z,6.13
2023-04-21T14:50:28.973Z,6.28
2023-04-21T14:53:31.719Z,5.88
2023-04-21T14:56:36.242Z,6.47
2023-04-21T14:59:39.398Z,6.50
2023-04-21T15:02:42.469Z,6.50
2023-04-21T15:05:45.490Z,6.40
2023-04-21T15:08:48.408Z,6.18
2023-04-21T15:11:52.645Z,6.17
2023-04-21T15:14:55.398Z,6.37
2023-04-21T15:17:58.333Z,6.05
2023-04-21T15:21:01.830Z,5.82
2023-04-21T15:24:04.821Z,5.45
2023-04-21T15:27:09.083Z,6.07
2023-04-21T15:30:12.883Z,5.83
2023-04-21T15:33:17.144Z,5.72
2023-04-21T15:36:19.942Z,5.85
2023-04-21T15:39:22.705Z,5.90
2023-04-21T15:42:27.002Z,5.90
2023-04-21T15:45:29.677Z,5.63
2023-04-21T15:48:32.656Z,5.78
2023-04-21T15:51:36.155Z,5.68
2023-04-21T15:54:39.457Z,5.82
2023-04-21T15:57:43.927Z,5.60
2023-04-21T16:00:46.913Z,5.67
2023-04-21T16:03:50.024Z,5.50
2023-04-21T16:06:52.989Z,5.60
2023-04-21T16:09:55.804Z,5.45
2023-04-21T16:13:00.072Z,5.30
2023-04-21T16:16:02.994Z,5.43
2023-04-21T16:19:05.905Z,5.28
2023-04-21T16:22:09.624Z,5.85
2023-04-21T16:25:14.156Z,5.50
2023-04-21T16:28:18.620Z,5.60
2023-04-21T16:31:21.540Z,5.45
2023-04-21T16:34:24.549Z,5.13
2023-04-21T16:37:27.401Z,5.13
2023-04-21T16:40:30.326Z,5.10
2023-04-21T16:43:34.569Z,5.55
2023-04-21T16:46:37.306Z,5.70
2023-04-21T16:49:40.219Z,5.53
2023-04-21T16:52:43.048Z,5.30
2023-04-21T16:55:45.835Z,5.25
2023-04-21T16:58:51.237Z,5.53
2023-04-21T17:01:54.056Z,5.32
2023-04-21T17:04:56.885Z,4.82
2023-04-21T17:07:59.732Z,5.37
2023-04-21T17:11:02.474Z,5.40
2023-04-21T17:14:06.770Z,5.07
2023-04-21T17:17:09.573Z,5.13
2023-04-21T17:20:14.936Z,5.28
2023-04-21T17:23:17.762Z,4.77
2023-04-21T17:26:21.005Z,5.18
2023-04-21T17:29:25.240Z,5.43
2023-04-21T17:32:28.766Z,4.97
2023-04-21T17:35:32.968Z,5.10
2023-04-21T17:38:36.399Z,5.20
2023-04-21T17:41:39.139Z,4.88
2023-04-21T17:44:43.378Z,4.93
2023-04-21T17:47:46.225Z,4.47
2023-04-21T17:50:49.126Z,5.22
2023-04-21T17:53:52.718Z,4.70
2023-04-21T17:56:56.153Z,5.10
2023-04-21T18:00:00.748Z,5.63
2023-04-21T18:03:03.512Z,5.13
2023-04-21T18:06:07.100Z,5.35
2023-04-21T18:09:10.709Z,4.60
2023-04-21T18:12:13.531Z,5.00
2023-04-21T18:15:17.834Z,5.18
2023-04-21T18:18:20.966Z,4.90
2023-04-21T18:21:23.914Z,5.05
2023-04-21T18:24:26.717Z,5.03
2023-04-21T18:27:29.566Z,5.13
2023-04-21T18:30:34.227Z,4.65
2023-04-21T18:33:37.040Z,4.53
2023-04-21T18:36:39.915Z,5.18
2023-04-21T18:39:42.685Z,5.10
2023-04-21T18:42:46.672Z,5.00
2023-04-21T18:45:50.876Z,5.72
2023-04-21T18:48:54.196Z,5.10
2023-04-21T18:51:57.038Z,4.70
2023-04-21T18:54:59.760Z,4.80
2023-04-21T18:58:02.868Z,4.88
2023-04-21T19:01:07.450Z,5.03
2023-04-21T19:04:11.020Z,5.07
2023-04-21T19:07:15.740Z,5.03
2023-04-21T19:10:19.164Z,4.83
2023-04-21T19:13:21.934Z,5.07
2023-04-21T19:16:26.208Z,5.28
2023-04-21T19:19:28.908Z,5.00
2023-04-21T19:22:33.596Z,5.07
2023-04-21T19:25:37.110Z,5.67
2023-04-21T19:28:40.437Z,5.00
2023-04-21T19:31:44.767Z,5.00
2023-04-21T19:34:47.551Z,4.95
2023-04-21T19:37:50.905Z,4.72
2023-04-21T19:40:56.115Z,5.10
2023-04-21T19:43:58.942Z,5.20
2023-04-21T19:47:03.182Z,4.97
2023-04-21T19:50:07.779Z,4.60
2023-04-21T19:53:14.573Z,4.90
2023-04-21T19:56:17.387Z,8.50
2023-04-21T19:59:20.132Z,5.70
2023-04-21T20:02:24.437Z,5.13
2023-04-21T20:05:27.339Z,4.63
2023-04-21T20:08:30.760Z,5.10
2023-04-21T20:11:33.926Z,4.87
2023-04-21T20:14:36.693Z,4.93
2023-04-21T20:17:41.815Z,5.28
2023-04-21T20:20:44.716Z,5.22
2023-04-21T20:23:47.666Z,5.20
2023-04-21T20:26:50.558Z,4.80
2023-04-21T20:29:53.320Z,4.97
2023-04-21T20:32:57.563Z,5.40
2023-04-21T20:36:06.993Z,5.90
2023-04-21T20:39:09.867Z,5.00
2023-04-21T20:42:14.009Z,5.10
2023-04-21T20:45:18.308Z,5.47
2023-04-21T20:48:23.893Z,5.35
2023-04-21T20:51:26.846Z,5.50
2023-04-21T20:54:30.076Z,5.22
2023-04-21T20:57:33.546Z,5.23
2023-04-21T21:00:36.663Z,5.78
2023-04-21T21:03:41.034Z,5.00
2023-04-21T21:06:44.204Z,4.70
2023-04-21T21:09:47.096Z,5.03
2023-04-21T21:12:50.037Z,5.20
2023-04-21T21:15:53.242Z,5.30
2023-04-21T21:18:57.556Z,4.90
2023-04-21T21:22:00.243Z,5.78
2023-04-21T21:25:03.662Z,5.63
2023-04-21T21:28:06.666Z,4.83
2023-04-21T21:31:09.475Z,5.50
2023-04-21T21:34:13.698Z,5.07
2023-04-21T21:37:16.448Z,5.50
2023-04-21T21:40:19.310Z,5.35
2023-04-21T21:43:22.164Z,5.53
2023-04-21T21:46:25.051Z,5.30
2023-04-21T21:49:29.310Z,5.50
2023-04-21T21:52:32.019Z,5.32
2023-04-21T21:55:34.959Z,5.32
2023-04-21T21:58:37.942Z,5.40
2023-04-21T22:01:40.705Z,4.85
2023-04-21T22:04:45.038Z,4.72
2023-04-21T22:07:47.806Z,4.65
2023-04-21T22:10:50.715Z,4.88
2023-04-21T22:13:53.633Z,4.77
2023-04-21T22:16:57.229Z,5.25
2023-04-21T22:20:01.542Z,5.32
2023-04-21T22:23:05.128Z,4.77
2023-04-21T22:26:09.386Z,5.03
2023-04-21T22:29:12.246Z,5.57
2023-04-21T22:32:15.075Z,5.60
2023-04-21T22:35:19.558Z,5.40
2023-04-21T22:38:22.251Z,5.57
2023-04-21T22:41:25.507Z,5.23
2023-04-21T22:44:28.337Z,5.57
2023-04-21T22:47:31.051Z,5.55
2023-04-21T22:50:35.662Z,4.75
2023-04-21T22:53:38.363Z,5.80
2023-04-21T22:56:41.254Z,5.07
2023-04-21T22:59:44.115Z,5.82
2023-04-21T23:02:46.890Z,5.38
2023-04-21T23:05:51.191Z,5.50
2023-04-21T23:08:53.865Z,5.60
2023-04-21T23:11:56.719Z,5.30
2023-04-21T23:14:59.561Z,5.90
2023-04-21T23:18:02.293Z,5.95
2023-04-21T23:21:06.650Z,5.93
2023-04-21T23:24:09.416Z,6.00
2023-04-21T23:27:12.236Z,5.50
2023-04-21T23:30:15.507Z,5.72
2023-04-21T23:33:18.465Z,5.28
2023-04-21T23:36:22.804Z,5.60
2023-04-21T23:39:25.702Z,6.00
2023-04-21T23:42:28.575Z,5.70
2023-04-21T23:45:31.436Z,5.57
2023-04-21T23:48:34.876Z,5.78
2023-04-21T23:51:39.164Z,5.60
2023-04-21T23:54:41.915Z,5.97
2023-04-21T23:57:46.837Z,6.00
